createdAt,value
2023-05-25T00:01:24.581Z,78.70
2023-05-25T00:03:52.924Z,78.09
2023-05-25T00:06:20.206Z,78.83
2023-05-25T00:08:48.755Z,79.56
2023-05-25T00:11:19.588Z,79.64
2023-05-25T00:13:46.615Z,79.88
2023-05-25T00:16:13.668Z,79.55
2023-05-25T00:18:40.718Z,80.37
2023-05-25T00:21:07.819Z,80.34
2023-05-25T00:23:34.936Z,80.25
2023-05-25T00:26:03.576Z,80.45
2023-05-25T00:28:30.622Z,79.94
2023-05-25T00:30:57.703Z,80.06
2023-05-25T00:33:25.097Z,80.21
2023-05-25T00:35:54.260Z,80.35
2023-05-25T00:38:21.815Z,78.77
2023-05-25T00:40:48.976Z,78.73
2023-05-25T00:43:16.208Z,79.17
2023-05-25T00:45:43.470Z,80.55
2023-05-25T00:48:11.338Z,81.47
2023-05-25T00:50:43.148Z,81.11
2023-05-25T00:53:11.662Z,80.77
2023-05-25T00:55:49.907Z,81.22
2023-05-25T00:58:22.344Z,81.09
2023-05-25T01:00:53.629Z,80.79
2023-05-25T01:03:27.979Z,80.91
2023-05-25T01:05:57.615Z,80.18
2023-05-25T01:08:25.857Z,79.77
2023-05-25T01:10:54.255Z,80.50
2023-05-25T01:13:21.623Z,80.58
2023-05-25T01:15:49.999Z,80.30
2023-05-25T01:18:18.316Z,81.19
2023-05-25T01:21:00.276Z,81.55
2023-05-25T01:23:32.952Z,82.04
2023-05-25T01:26:03.682Z,82.50
2023-05-25T01:28:46.968Z,82.71
2023-05-25T01:31:16.308Z,82.36
2023-05-25T01:33:44.897Z,82.60
2023-05-25T01:36:12.058Z,83.24
2023-05-25T01:38:39.297Z,83.38
2023-05-25T01:41:06.342Z,82.93
2023-05-25T01:43:33.336Z,82.24
2023-05-25T01:46:28.295Z,81.58
2023-05-25T01:49:08.779Z,81.11
2023-05-25T01:51:41.637Z,80.34
2023-05-25T01:54:25.543Z,80.74
2023-05-25T01:56:55.137Z,80.94
2023-05-25T01:59:24.776Z,81.15
2023-05-25T02:01:53.778Z,81.33
2023-05-25T02:04:22.389Z,81.44
2023-05-25T02:06:52.054Z,82.35
2023-05-25T02:09:20.742Z,82.05
2023-05-25T02:11:47.815Z,82.10
2023-05-25T02:14:16.169Z,82.87
2023-05-25T02:16:46.125Z,83.12
2023-05-25T02:19:15.120Z,83.75
2023-05-25T02:21:42.871Z,83.79
2023-05-25T02:24:10.441Z,83.68
2023-05-25T02:26:39.134Z,84.57
2023-05-25T02:29:06.668Z,84.62
2023-05-25T02:31:33.846Z,84.99
2023-05-25T02:34:01.899Z,84.82
2023-05-25T02:36:29.009Z,84.75
2023-05-25T02:38:56.046Z,85.00
2023-05-25T02:41:24.459Z,85.53
2023-05-25T02:43:51.649Z,85.26
2023-05-25T02:46:18.979Z,85.75
2023-05-25T02:48:47.317Z,85.16
2023-05-25T02:51:14.667Z,84.72
2023-05-25T02:53:41.955Z,84.87
2023-05-25T02:56:10.498Z,84.66
2023-05-25T02:58:38.867Z,84.36
2023-05-25T03:01:18.582Z,83.52
2023-05-25T03:03:52.713Z,83.40
2023-05-25T03:06:23.152Z,84.72
2023-05-25T03:08:54.688Z,85.06
2023-05-25T03:11:22.689Z,84.72
2023-05-25T03:13:51.790Z,84.45
2023-05-25T03:16:20.907Z,84.12
2023-05-25T03:18:48.927Z,84.39
2023-05-25T03:21:16.548Z,85.10
2023-05-25T03:23:44.512Z,85.29
2023-05-25T03:26:11.648Z,84.58
2023-05-25T03:28:39.860Z,84.55
2023-05-25T03:31:07.554Z,84.99
2023-05-25T03:33:34.809Z,84.73
2023-05-25T03:36:02.165Z,84.59
2023-05-25T03:38:29.263Z,83.90
2023-05-25T03:40:56.368Z,83.97
2023-05-25T03:43:23.383Z,83.67
2023-05-25T03:45:50.547Z,83.11
2023-05-25T03:48:17.627Z,83.24
2023-05-25T03:50:44.718Z,83.38
2023-05-25T03:53:11.732Z,83.34
2023-05-25T03:55:39.317Z,82.91
2023-05-25T03:58:06.397Z,82.22
2023-05-25T04:00:33.453Z,82.03
2023-05-25T04:03:00.614Z,81.00
2023-05-25T04:05:27.859Z,81.08
2023-05-25T04:07:57.727Z,80.22
2023-05-25T04:10:24.738Z,79.78
2023-05-25T04:12:52.076Z,79.03
2023-05-25T04:15:21.431Z,79.18
2023-05-25T04:18:03.185Z,78.56
2023-05-25T04:20:30.805Z,78.37
2023-05-25T04:22:57.834Z,77.87
2023-05-25T04:25:28.632Z,75.99
2023-05-25T04:27:56.914Z,75.99
2023-05-25T04:30:57.311Z,75.94
2023-05-25T04:33:47.585Z,76.00
2023-05-25T04:36:18.642Z,74.74
2023-05-25T04:38:48.069Z,75.51
2023-05-25T04:41:15.928Z,74.29
2023-05-25T04:44:04.573Z,73.63
2023-05-25T04:46:37.617Z,73.29
2023-05-25T04:49:05.972Z,72.33
2023-05-25T04:51:33.138Z,72.59
2023-05-25T04:54:00.366Z,71.67
2023-05-25T04:56:28.206Z,71.21
2023-05-25T04:58:55.272Z,71.74
2023-05-25T05:01:22.496Z,69.60
2023-05-25T05:03:50.074Z,68.61
2023-05-25T05:06:18.138Z,67.45
2023-05-25T05:08:45.845Z,67.01
2023-05-25T05:11:13.023Z,65.79
2023-05-25T05:13:40.166Z,65.54
2023-05-25T05:16:08.326Z,65.06
2023-05-25T05:18:35.438Z,64.31
2023-05-25T05:21:02.507Z,64.49
2023-05-25T05:23:29.759Z,63.83
2023-05-25T05:25:56.933Z,62.50
2023-05-25T05:28:27.489Z,61.31
2023-05-25T05:30:54.815Z,61.86
2023-05-25T05:33:24.315Z,61.93
2023-05-25T05:35:52.523Z,63.30
2023-05-25T05:38:21.826Z,62.49
2023-05-25T05:40:48.942Z,61.37
2023-05-25T05:43:20.984Z,62.23
2023-05-25T05:45:48.068Z,60.82
2023-05-25T05:48:15.528Z,62.20
2023-05-25T05:50:42.920Z,61.79
2023-05-25T05:53:11.608Z,60.23
2023-05-25T05:55:38.701Z,60.26
2023-05-25T05:58:05.821Z,58.10
2023-05-25T06:00:32.816Z,60.51
2023-05-25T06:03:01.016Z,63.70
2023-05-25T06:05:30.232Z,65.09
2023-05-25T06:07:58.349Z,64.30
2023-05-25T06:10:25.395Z,58.04
2023-05-25T06:12:52.914Z,56.07
2023-05-25T06:15:20.271Z,54.35
2023-05-25T06:17:49.946Z,56.71
2023-05-25T06:20:17.929Z,55.63
2023-05-25T06:22:46.232Z,56.44
2023-05-25T06:25:14.074Z,56.73
2023-05-25T06:27:41.139Z,56.68
2023-05-25T06:30:08.725Z,57.03
2023-05-25T06:32:36.917Z,57.56
2023-05-25T06:35:05.177Z,58.62
2023-05-25T06:37:38.168Z,58.37
2023-05-25T06:40:10.534Z,57.06
2023-05-25T06:42:38.109Z,55.26
2023-05-25T06:45:06.671Z,55.36
2023-05-25T06:47:34.022Z,56.59
2023-05-25T06:50:01.789Z,56.95
2023-05-25T06:52:28.955Z,56.35
2023-05-25T06:54:56.976Z,56.36
2023-05-25T06:57:24.539Z,57.59
2023-05-25T06:59:51.626Z,57.54
2023-05-25T07:02:20.643Z,56.19
2023-05-25T07:04:47.957Z,61.47
2023-05-25T07:07:15.146Z,59.37
2023-05-25T07:09:42.282Z,60.44
2023-05-25T07:12:11.195Z,60.11
2023-05-25T07:14:38.564Z,61.30
2023-05-25T07:17:05.905Z,59.24
2023-05-25T07:19:33.011Z,58.90
2023-05-25T07:22:00.063Z,58.28
2023-05-25T07:24:27.028Z,59.07
2023-05-25T07:26:54.252Z,58.75
2023-05-25T07:29:21.337Z,59.74
2023-05-25T07:31:48.562Z,59.55
2023-05-25T07:34:15.722Z,58.78
2023-05-25T07:36:42.753Z,57.88
2023-05-25T07:39:11.418Z,59.44
2023-05-25T07:41:39.252Z,60.41
2023-05-25T07:44:06.363Z,58.70
2023-05-25T07:46:33.418Z,59.22
2023-05-25T07:49:00.661Z,61.25
2023-05-25T07:51:30.345Z,57.35
2023-05-25T07:53:58.514Z,58.83
2023-05-25T07:56:26.721Z,56.24
2023-05-25T07:58:53.850Z,58.64
2023-05-25T08:01:21.467Z,56.25
2023-05-25T08:03:50.161Z,56.54
2023-05-25T08:06:17.622Z,57.08
2023-05-25T08:08:45.249Z,57.50
2023-05-25T08:11:12.636Z,56.21
2023-05-25T08:13:39.744Z,55.16
2023-05-25T08:16:06.916Z,56.57
2023-05-25T08:18:33.956Z,57.04
2023-05-25T08:21:01.610Z,57.32
2023-05-25T08:23:28.642Z,56.71
2023-05-25T08:25:55.799Z,55.28
2023-05-25T08:28:22.965Z,56.20
2023-05-25T08:30:50.237Z,55.77
2023-05-25T08:33:17.980Z,54.33
2023-05-25T08:35:45.373Z,54.16
2023-05-25T08:38:12.705Z,52.14
2023-05-25T08:40:42.434Z,51.95
2023-05-25T08:43:09.471Z,51.78
2023-05-25T08:45:39.449Z,52.13
2023-05-25T08:48:12.474Z,54.05
2023-05-25T08:50:41.447Z,54.85
2023-05-25T08:53:12.075Z,53.49
2023-05-25T08:55:43.633Z,54.78
2023-05-25T08:58:17.623Z,56.65
2023-05-25T09:00:55.250Z,56.03
2023-05-25T09:03:23.236Z,55.44
2023-05-25T09:05:51.299Z,54.38
2023-05-25T09:08:20.007Z,61.14
2023-05-25T09:10:47.306Z,67.95
2023-05-25T09:13:21.771Z,66.58
2023-05-25T09:15:50.783Z,73.99
2023-05-25T09:18:17.996Z,80.84
2023-05-25T09:20:46.985Z,79.26
2023-05-25T09:23:15.548Z,78.93
2023-05-25T09:25:44.150Z,77.78
2023-05-25T09:30:41.823Z,77.34
2023-05-25T09:33:19.116Z,82.63
2023-05-25T09:35:46.770Z,85.39
2023-05-25T09:38:16.349Z,84.05
2023-05-25T09:40:44.056Z,88.30
2023-05-25T09:43:17.254Z,89.86
2023-05-25T10:17:24.720Z,100.00
2023-05-25T10:19:59.855Z,100.00
2023-05-25T10:22:33.994Z,99.99
2023-05-25T10:25:15.342Z,97.94
2023-05-25T10:27:47.873Z,98.36
2023-05-25T10:30:16.548Z,94.45
2023-05-25T10:32:45.502Z,94.72
2023-05-25T10:35:14.238Z,91.37
2023-05-25T10:37:42.403Z,90.42
2023-05-25T10:40:10.473Z,87.40
2023-05-25T10:42:38.260Z,88.51
2023-05-25T10:45:07.683Z,89.88
2023-05-25T10:47:42.211Z,89.82
2023-05-25T10:50:34.846Z,89.44
2023-05-25T10:53:12.786Z,90.07
2023-05-25T10:55:52.051Z,89.77
2023-05-25T10:58:21.095Z,88.93
2023-05-25T11:01:12.622Z,88.31
2023-05-25T11:04:17.291Z,89.47
2023-05-25T11:06:47.025Z,90.90
2023-05-25T11:09:27.879Z,91.77
2023-05-25T11:11:59.835Z,90.52
2023-05-25T11:14:27.975Z,89.76
2023-05-25T11:17:14.498Z,90.15
2023-05-25T11:19:52.228Z,89.51
2023-05-25T11:22:23.160Z,90.85
2023-05-25T11:24:52.242Z,90.47
2023-05-25T11:27:28.100Z,92.58
2023-05-25T11:29:58.886Z,91.35
2023-05-25T11:32:27.082Z,93.19
2023-05-25T11:34:55.215Z,94.31
2023-05-25T11:37:25.003Z,93.11
2023-05-25T11:39:53.416Z,93.32
2023-05-25T11:42:23.126Z,92.52
2023-05-25T11:44:50.504Z,93.40
2023-05-25T11:47:23.348Z,94.33
2023-05-25T11:49:50.970Z,92.86
2023-05-25T11:52:20.435Z,91.47
2023-05-25T11:54:47.584Z,91.92
2023-05-25T11:57:19.782Z,92.23
2023-05-25T11:59:51.698Z,91.20
2023-05-25T12:02:19.559Z,91.25
2023-05-25T12:04:57.881Z,90.92
2023-05-25T12:07:26.579Z,89.48
2023-05-25T12:10:06.004Z,89.38
2023-05-25T12:12:47.760Z,88.41
2023-05-25T12:15:22.050Z,88.93
2023-05-25T12:17:50.834Z,85.78
2023-05-25T12:20:18.637Z,86.79
2023-05-25T12:22:46.885Z,87.45
2023-05-25T12:25:16.131Z,86.41
2023-05-25T12:27:44.082Z,86.65
2023-05-25T12:30:12.010Z,84.42
2023-05-25T12:32:55.689Z,83.91
2023-05-25T12:35:23.080Z,85.97
2023-05-25T12:37:50.123Z,85.91
2023-05-25T12:40:21.504Z,85.10
2023-05-25T12:42:57.339Z,83.72
2023-05-25T12:45:24.866Z,86.55
2023-05-25T12:47:52.013Z,88.01
2023-05-25T12:50:19.709Z,89.60
2023-05-25T12:52:48.050Z,88.68
2023-05-25T12:55:28.800Z,89.02
2023-05-25T12:58:04.890Z,88.37
2023-05-25T13:00:34.773Z,83.48
2023-05-25T13:03:02.745Z,85.52
2023-05-25T13:05:33.044Z,85.67
2023-05-25T13:08:00.235Z,84.71
2023-05-25T13:10:29.199Z,85.73
2023-05-25T13:12:58.580Z,85.32
2023-05-25T13:15:27.102Z,88.00
2023-05-25T13:17:56.594Z,86.56
2023-05-25T13:20:27.733Z,88.89
2023-05-25T13:22:57.510Z,88.05
2023-05-25T13:25:27.608Z,88.56
2023-05-25T13:27:57.018Z,89.94
2023-05-25T13:30:24.089Z,90.00
2023-05-25T13:32:52.848Z,88.32
2023-05-25T13:35:37.333Z,87.99
2023-05-25T13:38:04.724Z,87.81
2023-05-25T13:40:31.851Z,86.60
2023-05-25T13:42:58.894Z,85.15
2023-05-25T13:45:25.894Z,84.73
2023-05-25T13:47:53.168Z,84.69
2023-05-25T13:50:20.375Z,83.66
2023-05-25T13:52:47.528Z,83.95
2023-05-25T13:55:14.638Z,83.34
2023-05-25T13:57:41.628Z,85.19
2023-05-25T14:00:09.580Z,83.93
2023-05-25T14:02:37.468Z,83.82
2023-05-25T14:05:05.227Z,84.31
2023-05-25T14:07:32.956Z,85.75
2023-05-25T14:10:00.395Z,85.57
2023-05-25T14:12:27.906Z,84.39
2023-05-25T14:14:55.017Z,84.15
2023-05-25T14:17:22.024Z,83.08
2023-05-25T14:19:49.083Z,84.04
2023-05-25T14:22:16.088Z,82.81
2023-05-25T14:24:43.110Z,83.69
2023-05-25T14:27:10.194Z,82.97
2023-05-25T14:29:37.325Z,80.77
2023-05-25T14:32:04.744Z,80.06
2023-05-25T14:34:31.859Z,79.84
2023-05-25T14:36:58.896Z,79.81
2023-05-25T14:39:26.728Z,79.85
2023-05-25T14:41:53.793Z,78.50
2023-05-25T14:44:20.980Z,78.08
2023-05-25T14:46:48.094Z,77.09
2023-05-25T14:49:16.904Z,78.03
2023-05-25T14:51:43.923Z,75.87
2023-05-25T14:54:13.806Z,77.80
2023-05-25T14:56:40.892Z,76.92
2023-05-25T14:59:08.052Z,74.23
2023-05-25T15:01:35.570Z,73.61
2023-05-25T15:04:03.437Z,73.17
2023-05-25T15:06:32.102Z,75.24
2023-05-25T15:08:59.087Z,76.80
2023-05-25T15:11:26.994Z,75.34
2023-05-25T15:13:54.341Z,76.22
2023-05-25T15:16:21.458Z,78.76
2023-05-25T15:18:48.644Z,79.81
2023-05-25T15:21:15.623Z,77.60
2023-05-25T15:23:42.633Z,72.11
2023-05-25T15:26:11.747Z,69.46
2023-05-25T15:28:38.777Z,67.47
2023-05-25T15:31:05.954Z,69.20
2023-05-25T15:33:48.478Z,71.33
2023-05-25T15:36:19.211Z,70.34
2023-05-25T15:38:49.380Z,68.27
2023-05-25T15:41:17.514Z,67.47
2023-05-25T15:43:54.681Z,73.44
2023-05-25T15:46:21.982Z,67.96
2023-05-25T15:48:49.086Z,72.03
2023-05-25T15:51:16.183Z,72.31
2023-05-25T15:53:43.273Z,73.65
2023-05-25T15:56:10.532Z,76.49
2023-05-25T15:58:37.594Z,76.07
2023-05-25T16:01:05.142Z,78.88
2023-05-25T16:03:32.366Z,78.75
2023-05-25T16:05:59.512Z,78.35
2023-05-25T16:08:26.562Z,79.38
2023-05-25T16:10:53.630Z,80.93
2023-05-25T16:13:20.852Z,80.86
2023-05-25T16:15:48.030Z,81.86
2023-05-25T16:18:16.808Z,83.18
2023-05-25T16:20:44.274Z,83.76
2023-05-25T16:23:11.688Z,82.66
2023-05-25T16:25:38.731Z,81.93
2023-05-25T16:28:05.775Z,78.23
2023-05-25T16:30:32.947Z,79.75
2023-05-25T16:33:00.081Z,78.39
2023-05-25T16:35:27.120Z,77.23
2023-05-25T16:37:54.123Z,76.63
2023-05-25T16:40:21.239Z,76.65
2023-05-25T16:42:48.463Z,76.44
2023-05-25T16:45:15.529Z,77.28
2023-05-25T16:47:42.654Z,78.42
2023-05-25T16:50:10.290Z,78.55
2023-05-25T16:52:37.345Z,78.70
2023-05-25T16:55:04.828Z,79.75
2023-05-25T16:57:31.834Z,80.04
2023-05-25T16:59:58.837Z,79.81
2023-05-25T17:02:26.349Z,80.08
2023-05-25T17:07:21.030Z,81.00
2023-05-25T17:09:47.999Z,80.91
2023-05-25T17:12:15.116Z,80.73
2023-05-25T17:14:42.112Z,80.09
2023-05-25T17:17:09.150Z,79.79
2023-05-25T17:19:36.245Z,80.96
2023-05-25T17:22:03.237Z,80.57
2023-05-25T17:24:30.355Z,80.91
2023-05-25T17:26:57.420Z,80.68
2023-05-25T17:29:24.450Z,80.56
2023-05-25T17:31:51.581Z,81.04
2023-05-25T17:34:18.723Z,81.87
2023-05-25T17:36:45.856Z,81.84
2023-05-25T17:39:12.950Z,82.09
2023-05-25T17:41:40.058Z,82.53
2023-05-25T17:44:07.115Z,82.75
2023-05-25T17:46:34.173Z,82.42
2023-05-25T17:49:01.267Z,82.12
2023-05-25T17:51:28.273Z,82.91
2023-05-25T17:53:55.271Z,84.17
2023-05-25T17:56:22.367Z,84.87
2023-05-25T17:58:49.476Z,85.86
2023-05-25T18:01:17.168Z,87.33
2023-05-25T18:03:44.482Z,88.68
2023-05-25T18:06:11.660Z,90.26
2023-05-25T18:08:38.773Z,91.00
2023-05-25T18:11:05.965Z,90.74
2023-05-25T18:13:33.093Z,91.13
2023-05-25T18:16:00.184Z,92.08
2023-05-25T18:18:27.510Z,93.28
2023-05-25T18:20:54.501Z,93.24
2023-05-25T18:23:22.515Z,93.35
2023-05-25T18:25:49.607Z,93.47
2023-05-25T18:28:16.656Z,93.71
2023-05-25T18:30:43.812Z,93.25
2023-05-25T18:33:11.150Z,92.88
2023-05-25T18:35:38.634Z,92.53
2023-05-25T18:38:06.889Z,91.83
2023-05-25T18:40:34.064Z,91.91
2023-05-25T18:43:01.189Z,91.58
2023-05-25T18:45:28.204Z,91.96
2023-05-25T18:47:55.249Z,92.31
2023-05-25T18:50:22.341Z,92.36
2023-05-25T18:52:51.621Z,93.76
2023-05-25T18:55:19.349Z,94.24
2023-05-25T18:57:46.965Z,95.01
2023-05-25T19:00:14.958Z,95.12
2023-05-25T19:02:42.212Z,95.91
2023-05-25T19:05:11.866Z,96.72
2023-05-25T19:07:58.344Z,96.28
2023-05-25T19:10:26.665Z,96.66
2023-05-25T19:12:53.707Z,96.81
2023-05-25T19:15:20.826Z,96.58
2023-05-25T19:17:48.073Z,97.09
2023-05-25T19:20:15.514Z,96.37
2023-05-25T19:22:42.732Z,95.58
2023-05-25T19:25:09.976Z,95.83
2023-05-25T19:27:37.129Z,95.67
2023-05-25T19:30:04.557Z,95.88
2023-05-25T19:32:31.666Z,96.42
2023-05-25T19:34:58.752Z,96.16
2023-05-25T19:37:26.528Z,96.14
2023-05-25T19:39:53.773Z,95.51
2023-05-25T19:42:20.985Z,95.15
2023-05-25T19:44:48.174Z,93.82
2023-05-25T19:47:15.249Z,93.69
2023-05-25T19:49:42.917Z,92.80
2023-05-25T19:52:10.029Z,92.61
2023-05-25T19:54:37.080Z,93.16
2023-05-25T19:57:04.229Z,93.87
2023-05-25T19:59:31.653Z,94.51
2023-05-25T20:01:58.861Z,95.39
2023-05-25T20:04:26.355Z,94.69
2023-05-25T20:06:54.111Z,94.95
2023-05-25T20:09:29.992Z,94.63
2023-05-25T20:12:00.944Z,94.72
2023-05-25T20:14:27.952Z,94.94
2023-05-25T20:16:56.025Z,95.87
2023-05-25T20:19:23.476Z,96.63
2023-05-25T20:21:50.903Z,96.54
2023-05-25T20:24:18.255Z,96.80
2023-05-25T20:26:45.547Z,97.25
2023-05-25T20:29:12.672Z,97.29
2023-05-25T20:31:40.572Z,97.55
2023-05-25T20:34:07.686Z,97.27
2023-05-25T20:36:34.672Z,97.46
2023-05-25T20:39:03.287Z,97.54
2023-05-25T20:41:30.550Z,96.88
2023-05-25T20:43:58.073Z,96.93
2023-05-25T20:46:25.258Z,96.96
2023-05-25T20:48:53.608Z,96.95
2023-05-25T20:51:21.972Z,97.47
2023-05-25T20:53:49.049Z,97.64
2023-05-25T20:56:16.248Z,97.65
2023-05-25T20:58:43.423Z,97.87
2023-05-25T21:01:10.704Z,97.99
2023-05-25T21:03:37.914Z,97.57
2023-05-25T21:06:05.079Z,97.92
2023-05-25T21:08:33.560Z,97.70
2023-05-25T21:11:01.044Z,97.35
2023-05-25T21:13:28.064Z,97.34
2023-05-25T21:15:55.394Z,97.74
2023-05-25T21:18:22.497Z,97.61
2023-05-25T21:20:49.619Z,97.46
2023-05-25T21:23:16.928Z,97.68
2023-05-25T21:25:44.305Z,97.62
2023-05-25T21:28:11.532Z,97.01
2023-05-25T21:30:38.574Z,96.54
2023-05-25T21:33:05.819Z,96.82
2023-05-25T21:35:32.855Z,96.55
2023-05-25T21:37:59.905Z,96.61
2023-05-25T21:40:26.976Z,95.84
2023-05-25T21:42:54.413Z,95.98
2023-05-25T21:45:21.912Z,95.68
2023-05-25T21:47:49.026Z,95.73
2023-05-25T21:50:16.349Z,96.36
2023-05-25T21:52:43.596Z,97.08
2023-05-25T21:55:10.864Z,97.09
2023-05-25T21:57:37.933Z,97.50
2023-05-25T22:00:06.705Z,97.67
2023-05-25T22:02:39.790Z,97.26
2023-05-25T22:05:07.339Z,97.27
2023-05-25T22:07:34.334Z,97.18
2023-05-25T22:10:01.437Z,97.22
2023-05-25T22:12:28.453Z,97.01
2023-05-25T22:14:55.672Z,97.21
2023-05-25T22:17:22.752Z,97.37
2023-05-25T22:20:03.249Z,96.74
2023-05-25T22:22:34.206Z,96.85
2023-05-25T22:25:01.420Z,97.04
2023-05-25T22:27:28.519Z,96.91
2023-05-25T22:29:55.770Z,97.24
2023-05-25T22:32:23.290Z,97.22
2023-05-25T22:34:50.452Z,97.12
2023-05-25T22:37:17.611Z,96.77
2023-05-25T22:39:45.010Z,97.42
2023-05-25T22:42:12.087Z,97.22
2023-05-25T22:44:39.321Z,97.90
2023-05-25T22:47:06.581Z,98.17
2023-05-25T22:49:42.643Z,98.82
2023-05-25T22:52:11.470Z,99.26
2023-05-25T22:54:38.502Z,99.73
2023-05-25T22:57:06.005Z,100.00
2023-05-25T22:59:33.082Z,100.00
2023-05-25T23:02:00.293Z,100.00
2023-05-25T23:04:27.528Z,100.00
2023-05-25T23:06:54.632Z,100.00
2023-05-25T23:09:21.658Z,100.00
2023-05-25T23:11:48.678Z,100.00
2023-05-25T23:14:15.707Z,100.00
2023-05-25T23:16:42.845Z,100.00
2023-05-25T23:19:09.956Z,100.00
2023-05-25T23:21:37.123Z,100.00
2023-05-25T23:24:04.394Z,100.00
2023-05-25T23:26:31.605Z,100.00
2023-05-25T23:28:58.783Z,100.00
2023-05-25T23:31:25.946Z,99.39
2023-05-25T23:33:53.059Z,99.18
2023-05-25T23:36:20.999Z,98.74
2023-05-25T23:38:47.997Z,98.81
2023-05-25T23:41:16.614Z,98.37
2023-05-25T23:43:43.672Z,98.86
2023-05-25T23:46:10.820Z,98.68
2023-05-25T23:48:37.854Z,98.75
2023-05-25T23:51:07.572Z,98.75
2023-05-25T23:53:34.662Z,99.12
2023-05-25T23:56:01.646Z,99.17
2023-05-25T23:58:28.788Z,99.29
